Time;durP1;ratioP1;P1;durP2;ratioP2;P2;SDS_P1;SDS_P2;PMS_P1;PMS_P2;Temp;Humidity;BMP_temperature;BMP_pressure;BME280_temperature;BME280_humidity;BME280_pressure;Samples;Min_cycle;Max_cycle;Signal;HPM_P1;HPM_P2
2023/03/17 00:02:00;;;;;;;16.55;11.27;;;;;;;9.46;64.39;100733.63;5054516;28;20057;-42
2023/03/17 00:04:26;;;;;;;18.20;11.98;;;;;;;9.47;64.24;100739.97;5054530;28;20017;-42
2023/03/17 00:06:53;;;;;;;17.70;12.10;;;;;;;9.45;63.68;100734.75;5054485;28;20036;-41
2023/03/17 00:09:19;;;;;;;17.30;11.68;;;;;;;9.45;63.74;100729.22;5054541;28;20099;-41
2023/03/17 00:11:45;;;;;;;18.10;11.88;;;;;;;9.44;64.35;100749.69;5054357;28;20102;-41
2023/03/17 00:14:10;;;;;;;18.15;11.75;;;;;;;9.50;64.93;100748.47;5054315;28;20476;-42
2023/03/17 00:16:42;;;;;;;17.08;11.85;;;;;;;9.51;63.81;100739.06;5054346;28;20037;-41
2023/03/17 00:19:17;;;;;;;18.23;12.48;;;;;;;9.50;64.30;100737.44;5049800;28;20025;-41
2023/03/17 00:21:42;;;;;;;18.02;12.18;;;;;;;9.43;64.21;100722.38;5054085;28;20040;-41
2023/03/17 00:24:10;;;;;;;17.77;12.13;;;;;;;9.42;64.17;100724.31;5054073;28;20035;-41
2023/03/17 00:26:36;;;;;;;18.75;12.20;;;;;;;9.41;64.47;100708.88;5053446;28;20556;-41
2023/03/17 00:29:02;;;;;;;17.13;11.60;;;;;;;9.40;63.61;100695.38;5052475;28;20120;-45
2023/03/17 00:31:28;;;;;;;17.35;11.48;;;;;;;9.34;63.85;100700.97;5053943;28;20388;-41
2023/03/17 00:33:54;;;;;;;17.92;11.60;;;;;;;9.36;63.71;100707.00;5053707;28;20053;-41
2023/03/17 00:36:23;;;;;;;18.65;12.18;;;;;;;9.28;64.42;100680.09;5053787;28;20067;-41
2023/03/17 00:38:49;;;;;;;18.52;11.82;;;;;;;9.32;63.65;100696.88;5053441;28;20476;-41
2023/03/17 00:41:14;;;;;;;16.38;11.57;;;;;;;9.28;63.67;100687.53;5053643;28;20499;-41
2023/03/17 00:43:40;;;;;;;17.77;11.80;;;;;;;9.24;64.10;100698.38;5053583;28;20037;-40
2023/03/17 00:46:15;;;;;;;17.55;11.50;;;;;;;9.21;64.66;100694.28;5053625;28;20029;-41
2023/03/17 00:48:42;;;;;;;18.35;12.27;;;;;;;9.13;64.37;100694.97;5053650;28;20025;-45
2023/03/17 00:51:07;;;;;;;18.40;12.27;;;;;;;9.14;64.63;100693.00;5052218;28;20032;-41
2023/03/17 00:53:33;;;;;;;18.25;12.63;;;;;;;9.09;64.27;100690.34;5052170;28;20029;-40
2023/03/17 00:55:59;;;;;;;17.45;12.57;;;;;;;9.11;64.85;100688.91;5053362;28;20515;-41
2023/03/17 00:58:27;;;;;;;19.02;12.15;;;;;;;9.04;64.46;100689.28;5053300;28;20041;-40
2023/03/17 01:00:54;;;;;;;16.98;12.05;;;;;;;9.05;64.84;100685.41;5053043;28;20476;-42
2023/03/17 01:03:20;;;;;;;18.45;12.10;;;;;;;9.03;64.99;100686.84;5053102;28;20051;-40
2023/03/17 01:05:47;;;;;;;18.45;12.63;;;;;;;8.98;64.63;100678.63;5053277;28;20029;-41
2023/03/17 01:08:12;;;;;;;17.23;11.88;;;;;;;9.00;65.15;100680.00;5051974;28;20055;-41
2023/03/17 01:10:38;;;;;;;17.35;12.07;;;;;;;8.98;64.26;100676.69;5051929;28;20025;-41
2023/03/17 01:13:04;;;;;;;17.23;12.00;;;;;;;9.03;65.46;100676.59;5053068;28;20032;-41
2023/03/17 01:15:31;;;;;;;17.48;11.93;;;;;;;9.02;64.90;100680.50;5053158;28;20037;-41
2023/03/17 01:17:58;;;;;;;17.55;11.85;;;;;;;8.99;64.32;100688.53;5049399;28;20021;-40
2023/03/17 01:20:32;;;;;;;16.23;11.75;;;;;;;8.93;65.44;100678.72;5051524;28;20090;-41
2023/03/17 01:22:58;;;;;;;18.02;11.77;;;;;;;9.01;65.51;100680.78;5052769;28;20028;-41
2023/03/17 01:25:24;;;;;;;17.08;11.20;;;;;;;9.05;65.53;100676.34;5052821;28;20036;-41
2023/03/17 01:27:49;;;;;;;16.75;11.38;;;;;;;8.99;64.67;100669.22;5052915;28;20029;-41
2023/03/17 01:30:18;;;;;;;18.05;11.95;;;;;;;8.99;65.29;100666.47;5052848;28;20033;-40
2023/03/17 01:32:43;;;;;;;17.75;11.63;;;;;;;9.00;65.17;100660.69;5052621;28;20111;-40
2023/03/17 01:35:09;;;;;;;18.75;12.07;;;;;;;8.93;64.53;100665.72;5052486;28;20104;-41
2023/03/17 01:37:35;;;;;;;17.45;11.85;;;;;;;8.88;65.06;100668.56;5051674;28;20383;-40
2023/03/17 01:40:00;;;;;;;16.92;12.07;;;;;;;8.86;65.32;100663.38;5052510;28;20543;-41
2023/03/17 01:42:27;;;;;;;17.30;11.93;;;;;;;8.77;65.17;100654.13;5052404;28;20112;-40
2023/03/17 01:45:03;;;;;;;16.75;11.82;;;;;;;8.83;65.02;100660.41;5052423;28;20464;-41
2023/03/17 01:47:31;;;;;;;17.13;11.88;;;;;;;8.84;65.45;100659.25;5051027;28;20032;-40
2023/03/17 01:50:05;;;;;;;17.40;11.98;;;;;;;8.84;64.75;100659.25;5052362;28;20029;-40
2023/03/17 01:52:33;;;;;;;;;;;;;;;8.98;64.88;100667.59;5051449;28;20033;-41
2023/03/17 01:55:09;;;;;;;17.23;12.20;;;;;;;8.82;65.46;100659.56;5052281;28;19978;-41
2023/03/17 01:57:55;;;;;;;17.05;11.80;;;;;;;8.79;65.58;100651.88;5052413;28;20384;-41
2023/03/17 02:00:23;;;;;;;18.00;11.98;;;;;;;8.79;65.02;100664.84;5052446;28;20029;-41
2023/03/17 02:02:55;;;;;;;17.38;11.80;;;;;;;8.74;64.99;100650.00;5050643;28;20422;-40
2023/03/17 02:05:24;;;;;;;17.52;12.10;;;;;;;8.73;65.60;100648.41;5052205;28;20043;-40
2023/03/17 02:07:54;;;;;;;17.85;11.80;;;;;;;8.72;65.05;100640.41;5052200;28;20032;-41
2023/03/17 02:10:21;;;;;;;16.58;11.73;;;;;;;8.70;65.03;100634.34;5052161;28;20455;-41
2023/03/17 02:12:52;;;;;;;17.30;11.80;;;;;;;8.66;65.83;100636.09;5052221;28;20033;-41
2023/03/17 02:15:17;;;;;;;17.60;11.98;;;;;;;8.67;65.87;100630.25;5052287;28;20404;-41
2023/03/17 02:17:43;;;;;;;16.92;11.40;;;;;;;8.67;65.19;100627.50;5048846;28;20032;-41
2023/03/17 02:20:14;;;;;;;17.77;12.20;;;;;;;8.65;65.11;100626.16;5051788;28;20049;-43
2023/03/17 02:22:41;;;;;;;17.13;11.73;;;;;;;8.58;65.01;100630.13;5052071;28;20104;-41
2023/03/17 02:25:07;;;;;;;17.70;12.10;;;;;;;8.58;65.89;100627.38;5052092;28;20048;-41
2023/03/17 02:27:37;;;;;;;16.80;11.52;;;;;;;8.56;65.34;100628.75;5052157;28;20476;-41
2023/03/17 02:30:05;;;;;;;18.45;12.07;;;;;;;8.56;65.86;100634.28;5052011;28;20025;-41
2023/03/17 02:32:34;;;;;;;17.13;11.73;;;;;;;8.44;65.42;100618.16;5051956;28;20033;-41
2023/03/17 02:35:00;;;;;;;16.75;11.68;;;;;;;8.52;66.08;100623.03;5051706;28;20041;-41
2023/03/17 02:37:26;;;;;;;17.10;11.90;;;;;;;8.53;65.72;100621.91;5051961;28;20036;-41
2023/03/17 02:39:51;;;;;;;19.35;11.40;;;;;;;8.54;66.32;100603.47;5051714;28;20037;-42
2023/03/17 02:42:16;;;;;;;17.58;11.85;;;;;;;8.64;66.53;100603.31;5051656;28;20029;-41
2023/03/17 02:44:42;;;;;;;17.35;11.70;;;;;;;8.66;65.66;100611.28;5050557;28;20037;-41
2023/03/17 02:47:07;;;;;;;17.55;11.48;;;;;;;8.65;65.58;100615.13;5051655;28;20090;-41
2023/03/17 02:49:33;;;;;;;17.92;11.80;;;;;;;8.63;65.55;100603.59;5053481;28;20082;-41
2023/03/17 02:51:59;;;;;;;16.85;11.15;;;;;;;8.66;65.14;100603.00;5055971;28;20044;-41
2023/03/17 02:54:25;;;;;;;18.77;11.57;;;;;;;8.65;65.17;100598.59;5055837;28;20048;-40
2023/03/17 02:56:50;;;;;;;17.40;11.25;;;;;;;8.58;64.88;100613.59;5055863;28;20025;-41
2023/03/17 02:59:16;;;;;;;16.15;11.18;;;;;;;8.61;64.94;100601.13;5055935;28;20048;-41
2023/03/17 03:01:41;;;;;;;16.05;11.20;;;;;;;8.61;64.74;100598.38;5055829;28;20440;-42
2023/03/17 03:04:07;;;;;;;17.50;11.68;;;;;;;8.62;65.93;100594.50;5055839;28;20048;-42
2023/03/17 03:06:33;;;;;;;16.15;11.52;;;;;;;8.67;64.84;100605.44;5055628;28;20029;-41
2023/03/17 03:08:58;;;;;;;16.48;11.77;;;;;;;8.62;64.93;100600.03;5055616;28;20392;-41
2023/03/17 03:11:23;;;;;;;17.80;11.57;;;;;;;8.63;66.01;100609.94;5054318;28;20107;-42
2023/03/17 03:13:49;;;;;;;16.65;11.18;;;;;;;8.57;65.07;100611.94;5055499;28;20021;-41
2023/03/17 03:16:15;;;;;;;17.17;11.73;;;;;;;8.57;64.79;100608.34;5055491;28;20063;-41
2023/03/17 03:18:40;;;;;;;18.40;12.23;;;;;;;8.57;65.61;100606.44;5052091;28;20025;-41
2023/03/17 03:21:07;;;;;;;17.02;11.70;;;;;;;8.61;66.02;100608.56;5055391;28;20190;-41
2023/03/17 03:23:33;;;;;;;18.23;11.70;;;;;;;8.56;64.52;100603.94;5055321;28;20021;-41
2023/03/17 03:25:58;;;;;;;17.35;11.80;;;;;;;8.53;65.65;100594.34;5055399;28;20032;-41
2023/03/17 03:28:23;;;;;;;17.27;11.75;;;;;;;8.50;65.04;100603.22;5055225;28;20384;-41
2023/03/17 03:30:49;;;;;;;16.48;11.60;;;;;;;8.54;64.63;100615.28;5055389;28;20498;-42
2023/03/17 03:33:15;;;;;;;16.13;11.48;;;;;;;8.52;64.79;100611.19;5055184;28;20041;-41
2023/03/17 03:35:41;;;;;;;17.70;11.77;;;;;;;8.52;64.89;100613.97;5055256;28;20029;-41
2023/03/17 03:38:07;;;;;;;19.10;12.00;;;;;;;8.52;64.88;100608.44;5055253;28;20430;-41
2023/03/17 03:40:33;;;;;;;15.95;11.30;;;;;;;8.53;65.13;100610.88;5053488;28;20029;-41
2023/03/17 03:42:59;;;;;;;18.05;11.95;;;;;;;8.51;65.85;100593.81;5054641;28;20090;-41
2023/03/17 03:45:24;;;;;;;16.77;11.73;;;;;;;8.54;65.48;100609.78;5055346;28;20108;-42
2023/03/17 03:47:50;;;;;;;15.82;11.65;;;;;;;8.51;65.45;100617.81;5055011;28;20472;-41
2023/03/17 03:50:16;;;;;;;16.08;11.50;;;;;;;8.53;64.64;100621.13;5054924;28;20036;-41
2023/03/17 03:52:41;;;;;;;18.45;11.50;;;;;;;8.52;65.45;100622.22;5054784;28;20484;-41
2023/03/17 03:55:07;;;;;;;18.13;11.88;;;;;;;8.52;66.02;100639.56;5054772;28;20029;-41
2023/03/17 03:57:33;;;;;;;16.98;11.48;;;;;;;8.54;65.27;100639.28;5053306;28;20048;-42
2023/03/17 03:59:59;;;;;;;17.35;11.98;;;;;;;8.51;65.94;100629.66;5054613;28;20033;-42
2023/03/17 04:02:24;;;;;;;19.42;12.43;;;;;;;8.57;66.10;100634.00;5053844;28;20025;-42
2023/03/17 04:04:49;;;;;;;17.40;11.82;;;;;;;8.56;65.50;100639.78;5054709;28;20036;-42
2023/03/17 04:07:15;;;;;;;17.02;12.05;;;;;;;8.50;65.09;100639.03;5054563;28;20029;-42
2023/03/17 04:09:41;;;;;;;17.67;11.85;;;;;;;8.47;65.71;100634.16;5054675;28;20031;-41
2023/03/17 04:12:07;;;;;;;17.13;11.90;;;;;;;8.48;65.95;100644.06;5054873;28;20063;-42
2023/03/17 04:14:32;;;;;;;18.58;11.93;;;;;;;8.47;65.97;100633.28;5054841;28;20484;-42
2023/03/17 04:16:58;;;;;;;17.33;12.00;;;;;;;8.43;65.37;100639.41;5054209;28;20384;-43
2023/03/17 04:19:23;;;;;;;17.60;11.48;;;;;;;8.43;65.66;100638.56;5051336;28;20392;-42
2023/03/17 04:21:48;;;;;;;16.80;11.52;;;;;;;8.41;65.71;100636.13;5054313;28;20021;-41
2023/03/17 04:24:14;;;;;;;17.85;11.90;;;;;;;8.43;65.90;100633.06;5054275;28;20424;-42
2023/03/17 04:26:40;;;;;;;17.83;11.75;;;;;;;8.43;66.44;100633.06;5052970;28;20380;-42
2023/03/17 04:29:07;;;;;;;18.10;11.77;;;;;;;8.45;65.81;100636.34;5054296;28;20028;-41
2023/03/17 04:31:36;;;;;;;16.30;11.43;;;;;;;8.41;65.51;100636.13;5054286;28;20040;-43
2023/03/17 04:34:02;;;;;;;17.60;11.82;;;;;;;8.38;66.11;100633.13;5054194;28;20025;-41
2023/03/17 04:36:27;;;;;;;19.00;11.90;;;;;;;8.33;65.99;100635.94;5054116;28;20032;-41
2023/03/17 04:38:53;;;;;;;16.77;11.45;;;;;;;8.31;66.37;100635.44;5054090;28;20064;-41
2023/03/17 04:41:19;;;;;;;17.52;11.63;;;;;;;8.31;65.87;100633.50;5053808;28;20116;-41
2023/03/17 04:43:45;;;;;;;18.60;11.90;;;;;;;8.33;66.44;100641.47;5054046;28;20103;-41
2023/03/17 04:46:10;;;;;;;17.30;11.90;;;;;;;8.33;66.20;100639.53;5053995;28;20499;-41
2023/03/17 04:48:35;;;;;;;17.45;11.60;;;;;;;8.32;66.10;100646.16;5052617;28;20032;-42
2023/03/17 04:51:01;;;;;;;16.80;11.60;;;;;;;8.26;66.07;100650.13;5053990;28;20035;-42
2023/03/17 04:53:27;;;;;;;16.98;11.60;;;;;;;8.22;66.07;100649.84;5053948;28;20031;-42
2023/03/17 04:55:52;;;;;;;17.33;11.63;;;;;;;8.23;66.39;100634.16;5053783;28;20029;-42
2023/03/17 04:58:18;;;;;;;18.13;11.95;;;;;;;8.25;67.25;100632.75;5053729;28;20021;-42
2023/03/17 05:00:43;;;;;;;18.35;11.70;;;;;;;8.27;66.55;100626.94;5053988;28;20029;-42
2023/03/17 05:03:08;;;;;;;17.75;11.65;;;;;;;8.20;66.44;100620.97;5053784;28;20025;-42
2023/03/17 05:05:35;;;;;;;17.85;11.90;;;;;;;8.22;66.43;100632.53;5053223;28;20040;-42
2023/03/17 05:08:00;;;;;;;17.85;11.30;;;;;;;8.15;66.27;100635.63;5053568;28;20072;-42
2023/03/17 05:10:26;;;;;;;18.50;11.85;;;;;;;8.09;66.67;100621.09;5053458;28;20075;-43
2023/03/17 05:12:52;;;;;;;17.42;12.00;;;;;;;8.11;66.89;100618.06;5053335;28;20036;-43
2023/03/17 05:15:17;;;;;;;17.42;11.95;;;;;;;8.17;67.23;100618.81;5053368;28;20024;-42
2023/03/17 05:17:42;;;;;;;17.17;11.93;;;;;;;8.19;67.04;100611.06;5049289;28;20052;-41
2023/03/17 05:20:09;;;;;;;18.08;12.20;;;;;;;8.23;67.39;100603.84;5052655;28;20041;-42
2023/03/17 05:22:35;;;;;;;18.17;12.55;;;;;;;8.26;66.56;100609.59;5053088;28;20067;-42
2023/03/17 05:25:01;;;;;;;17.63;12.18;;;;;;;8.20;66.83;100605.25;5053082;28;20032;-42
2023/03/17 05:27:26;;;;;;;17.83;12.10;;;;;;;8.21;67.25;100614.34;5053167;28;20037;-43
2023/03/17 05:29:52;;;;;;;18.15;11.70;;;;;;;8.23;67.17;100631.41;5053006;28;20024;-42
2023/03/17 05:32:17;;;;;;;16.63;11.43;;;;;;;8.20;67.54;100618.22;5052919;28;20032;-42
2023/03/17 05:34:43;;;;;;;17.33;11.52;;;;;;;8.22;67.41;100621.50;5053034;28;20044;-42
2023/03/17 05:37:09;;;;;;;18.75;12.27;;;;;;;8.22;67.39;100630.56;5052925;28;20613;-46
2023/03/17 05:39:35;;;;;;;17.90;11.55;;;;;;;8.20;67.46;100626.47;5052683;28;20533;-42
2023/03/17 05:42:00;;;;;;;18.27;11.82;;;;;;;8.18;67.49;100632.28;5052815;28;20029;-42
2023/03/17 05:44:25;;;;;;;17.48;11.60;;;;;;;8.20;67.25;100637.50;5052557;28;20017;-40
2023/03/17 05:46:51;;;;;;;17.95;11.88;;;;;;;8.20;67.82;100635.59;5052362;28;20031;-41
2023/03/17 05:49:17;;;;;;;17.80;11.75;;;;;;;8.24;67.65;100636.63;5052522;28;20495;-41
2023/03/17 05:51:42;;;;;;;18.05;12.00;;;;;;;8.19;67.75;100631.19;5051387;28;20381;-41
2023/03/17 05:54:08;;;;;;;19.05;12.20;;;;;;;8.18;68.27;100624.03;5052692;28;20036;-41
2023/03/17 05:56:33;;;;;;;16.73;11.50;;;;;;;8.23;68.38;100618.44;5051291;28;20056;-41
2023/03/17 05:59:00;;;;;;;18.35;12.05;;;;;;;8.23;67.82;100620.38;5052593;28;20033;-42
2023/03/17 06:01:26;;;;;;;18.55;12.35;;;;;;;8.20;68.08;100627.31;5052196;28;20116;-41
2023/03/17 06:03:51;;;;;;;18.67;12.73;;;;;;;8.17;67.65;100625.13;5052345;28;20544;-42
2023/03/17 06:06:17;;;;;;;18.95;12.80;;;;;;;8.17;68.34;100627.09;5052311;28;20112;-42
2023/03/17 06:08:43;;;;;;;18.65;12.40;;;;;;;8.14;68.83;100611.94;5052343;28;20021;-42
2023/03/17 06:11:09;;;;;;;18.65;11.90;;;;;;;8.19;68.07;100611.06;5052401;28;20032;-41
2023/03/17 06:13:34;;;;;;;18.17;12.20;;;;;;;8.20;68.20;100620.97;5052331;28;20050;-41
2023/03/17 06:16:00;;;;;;;18.25;12.25;;;;;;;8.21;68.89;100622.59;5052270;28;20070;-41
2023/03/17 06:18:25;;;;;;;17.75;11.73;;;;;;;8.24;68.53;100625.59;5049342;28;20037;-42
2023/03/17 06:20:51;;;;;;;20.33;11.88;;;;;;;8.25;68.50;100624.47;5050980;28;20049;-41
2023/03/17 06:23:17;;;;;;;17.73;11.63;;;;;;;8.22;68.98;100616.78;5051831;28;20036;-42
2023/03/17 06:25:43;;;;;;;20.15;11.88;;;;;;;8.24;68.45;100622.84;5052066;28;20024;-41
2023/03/17 06:28:09;;;;;;;19.48;12.20;;;;;;;8.21;68.62;100617.94;5052370;28;20147;-41
2023/03/17 06:30:35;;;;;;;17.55;12.13;;;;;;;8.23;68.29;100623.94;5052229;28;20120;-41
2023/03/17 06:33:01;;;;;;;17.38;11.82;;;;;;;8.25;68.51;100630.00;5052239;28;20472;-41
2023/03/17 06:35:27;;;;;;;18.80;12.18;;;;;;;8.22;68.30;100627.00;5052051;28;20528;-41
2023/03/17 06:37:52;;;;;;;20.08;11.90;;;;;;;8.24;68.96;100625.59;5052177;28;20096;-41
2023/03/17 06:40:18;;;;;;;18.80;12.00;;;;;;;8.26;68.61;100626.13;5052003;28;20033;-41
2023/03/17 06:42:43;;;;;;;19.13;12.10;;;;;;;8.27;68.13;100633.28;5051967;28;20031;-41
2023/03/17 06:45:09;;;;;;;17.80;11.68;;;;;;;8.30;69.18;100628.28;5051903;28;20056;-41
2023/03/17 06:47:36;;;;;;;18.77;11.73;;;;;;;8.26;68.45;100619.81;5051911;28;20025;-41
2023/03/17 06:50:03;;;;;;;19.45;11.85;;;;;;;8.31;68.60;100639.00;5051984;28;20078;-41
2023/03/17 06:52:29;;;;;;;19.00;12.00;;;;;;;8.33;68.17;100628.50;5051763;28;20053;-41
2023/03/17 06:54:54;;;;;;;18.65;11.82;;;;;;;8.33;68.67;100623.00;5051872;28;20063;-41
2023/03/17 06:57:20;;;;;;;18.75;12.10;;;;;;;8.42;69.30;100635.00;5051816;28;20384;-41
2023/03/17 06:59:45;;;;;;;18.08;11.57;;;;;;;8.49;68.62;100628.31;5051725;28;20476;-42
2023/03/17 07:02:11;;;;;;;20.13;12.52;;;;;;;8.53;68.81;100626.63;5051727;28;20047;-42
2023/03/17 07:04:37;;;;;;;18.23;12.13;;;;;;;8.58;68.82;100627.38;5051828;28;20040;-41
2023/03/17 07:07:04;;;;;;;19.38;11.82;;;;;;;8.63;68.63;100622.88;5051687;28;20051;-42
2023/03/17 07:09:31;;;;;;;16.63;11.52;;;;;;;8.79;69.45;100629.00;5051531;28;20422;-41
2023/03/17 07:11:57;;;;;;;16.92;11.40;;;;;;;8.85;69.08;100631.38;5051650;28;20104;-41
2023/03/17 07:14:22;;;;;;;17.90;11.73;;;;;;;9.07;71.33;100640.16;5051645;28;20448;-41
2023/03/17 07:16:48;;;;;;;17.20;11.30;;;;;;;9.39;72.45;100641.28;5050578;28;20116;-41
2023/03/17 07:19:14;;;;;;;19.10;11.75;;;;;;;9.57;67.89;100631.28;5028316;28;20037;-41
2023/03/17 07:21:39;;;;;;;17.67;11.52;;;;;;;9.69;67.37;100626.06;5030187;28;20021;-41
2023/03/17 07:24:05;;;;;;;18.65;11.77;;;;;;;9.69;66.55;100620.56;5031493;28;20104;-41
2023/03/17 07:26:30;;;;;;;16.35;10.95;;;;;;;9.79;69.52;100623.13;5031183;28;20040;-41
2023/03/17 07:28:56;;;;;;;18.70;11.75;;;;;;;9.74;65.87;100616.88;5040626;28;20051;-41
2023/03/17 07:31:22;;;;;;;18.58;11.13;;;;;;;9.91;70.01;100622.59;5041027;28;20025;-41
2023/03/17 07:33:47;;;;;;;19.02;12.23;;;;;;;9.98;66.39;100630.50;5041732;28;20078;-41
2023/03/17 07:36:14;;;;;;;16.45;11.40;;;;;;;10.12;66.02;100627.72;5043470;28;20029;-41
2023/03/17 07:38:40;;;;;;;17.83;11.82;;;;;;;10.22;65.77;100626.66;5046551;28;20480;-41
2023/03/17 07:41:08;;;;;;;17.90;11.65;;;;;;;10.24;64.79;100621.66;5042374;28;20033;-41
2023/03/17 07:43:34;;;;;;;16.58;11.30;;;;;;;10.43;69.55;100611.31;5044615;28;20056;-42
2023/03/17 07:45:59;;;;;;;18.58;12.30;;;;;;;10.40;65.31;100606.38;5045586;28;20061;-41
2023/03/17 07:48:24;;;;;;;20.42;12.48;;;;;;;10.43;64.80;100608.53;5037733;28;20515;-41
2023/03/17 07:50:50;;;;;;;18.48;11.82;;;;;;;10.49;64.66;100603.72;5034879;28;20121;-41
2023/03/17 07:53:15;;;;;;;18.20;12.13;;;;;;;10.55;64.28;100607.19;5035138;28;20092;-41
2023/03/17 07:55:41;;;;;;;19.95;12.88;;;;;;;10.62;64.42;100602.03;5034786;28;20033;-41
2023/03/17 07:58:08;;;;;;;19.20;12.60;;;;;;;10.68;63.53;100608.28;5034816;28;20056;-41
2023/03/17 08:00:33;;;;;;;17.00;11.90;;;;;;;10.84;66.62;100612.31;5034917;28;20029;-41
2023/03/17 08:02:58;;;;;;;16.73;11.63;;;;;;;10.95;67.14;100609.28;5034728;28;20072;-41
2023/03/17 08:05:24;;;;;;;17.25;12.10;;;;;;;10.99;64.79;100607.53;5034591;28;20540;-41
2023/03/17 08:07:49;;;;;;;18.55;12.10;;;;;;;11.08;64.17;100620.28;5038418;28;20037;-41
2023/03/17 08:10:15;;;;;;;21.83;11.93;;;;;;;11.23;65.17;100632.94;5041422;28;20087;-41
2023/03/17 08:12:41;;;;;;;17.67;11.80;;;;;;;11.49;65.24;100628.69;5031669;28;20099;-41
2023/03/17 08:15:08;;;;;;;19.33;11.73;;;;;;;11.60;64.67;100623.69;5033207;28;20120;-41
2023/03/17 08:17:35;;;;;;;19.02;12.30;;;;;;;11.69;66.21;100613.47;5034252;28;20102;-42
2023/03/17 08:20:00;;;;;;;18.55;12.20;;;;;;;11.66;62.68;100609.38;5033949;28;20057;-43
2023/03/17 08:22:26;;;;;;;19.42;12.18;;;;;;;11.64;62.12;100616.38;5034080;28;20582;-41
2023/03/17 08:24:52;;;;;;;20.35;12.55;;;;;;;11.58;62.06;100625.94;5034110;28;20108;-42
2023/03/17 08:27:19;;;;;;;17.98;12.02;;;;;;;11.53;61.53;100630.50;5034180;28;20017;-42
2023/03/17 08:29:44;;;;;;;18.40;12.40;;;;;;;11.50;61.77;100622.03;5033828;28;20025;-41
2023/03/17 08:32:10;;;;;;;18.45;12.07;;;;;;;11.50;61.96;100633.09;5043641;28;20089;-42
2023/03/17 08:34:36;;;;;;;18.25;12.25;;;;;;;11.46;61.08;100630.16;5050843;28;20032;-41
2023/03/17 08:37:01;;;;;;;18.45;12.18;;;;;;;11.48;62.72;100616.78;5051115;28;20119;-41
2023/03/17 08:39:27;;;;;;;18.30;12.40;;;;;;;11.49;61.36;100614.84;5051154;28;20112;-42
2023/03/17 08:41:52;;;;;;;19.38;12.45;;;;;;;11.51;62.08;100615.34;5051731;28;20056;-41
2023/03/17 08:44:19;;;;;;;20.48;12.30;;;;;;;11.48;61.45;100619.53;5050411;28;20434;-42
2023/03/17 08:46:44;;;;;;;19.10;12.55;;;;;;;11.50;62.48;100610.94;5051008;28;20047;-41
2023/03/17 08:49:11;;;;;;;17.42;11.63;;;;;;;11.58;62.17;100603.78;5051699;28;20483;-43
2023/03/17 08:51:38;;;;;;;20.67;12.35;;;;;;;11.60;61.92;100587.66;5051744;28;20033;-42
2023/03/17 08:54:05;;;;;;;18.20;11.80;;;;;;;11.59;61.32;100586.03;5051518;28;20438;-41
2023/03/17 08:56:31;;;;;;;17.73;12.00;;;;;;;11.64;61.59;100594.22;5051295;28;20029;-41
2023/03/17 08:58:56;;;;;;;18.75;12.10;;;;;;;11.70;61.80;100606.78;5049907;28;20067;-42
2023/03/17 09:01:23;;;;;;;17.60;12.02;;;;;;;11.79;61.76;100613.19;5049765;28;20029;-41
2023/03/17 09:03:49;;;;;;;19.30;12.13;;;;;;;11.84;62.07;100612.22;5049879;28;20526;-41
2023/03/17 09:06:15;;;;;;;18.00;12.25;;;;;;;11.90;61.88;100622.03;5051132;28;20040;-41
2023/03/17 09:08:46;;;;;;;19.13;12.00;;;;;;;11.92;61.04;100605.88;5043525;28;20028;-42
2023/03/17 09:11:17;;;;;;;19.48;12.40;;;;;;;12.04;60.81;100616.41;5049347;28;20028;-42
2023/03/17 09:13:45;;;;;;;19.58;12.50;;;;;;;12.10;60.61;100609.56;5051020;28;20040;-42
2023/03/17 09:16:11;;;;;;;20.20;12.48;;;;;;;12.16;60.52;100616.59;5050509;28;20038;-41
2023/03/17 09:18:37;;;;;;;18.00;12.32;;;;;;;12.22;60.80;100608.94;5050802;28;20096;-42
2023/03/17 09:21:02;;;;;;;19.70;12.57;;;;;;;12.26;60.18;100606.31;5051019;28;20144;-41
2023/03/17 09:23:28;;;;;;;19.02;12.32;;;;;;;12.36;60.33;100610.75;5050676;28;20113;-42
2023/03/17 09:25:53;;;;;;;21.17;12.48;;;;;;;12.39;60.51;100604.53;5049104;28;20285;-42
2023/03/17 09:28:18;;;;;;;19.30;12.68;;;;;;;12.48;60.22;100616.47;5050032;28;20411;-42
2023/03/17 09:30:44;;;;;;;19.17;12.07;;;;;;;12.55;60.42;100605.72;5050034;28;20472;-42
2023/03/17 09:33:11;;;;;;;19.40;12.25;;;;;;;12.59;59.61;100600.34;5050145;28;20029;-42
2023/03/17 09:35:38;;;;;;;19.98;12.48;;;;;;;12.69;59.98;100613.06;5049871;28;20492;-42
2023/03/17 09:38:04;;;;;;;17.77;12.10;;;;;;;12.75;59.49;100614.56;5050131;28;20060;-41
2023/03/17 09:40:35;;;;;;;19.42;12.50;;;;;;;12.81;58.93;100610.47;5050463;28;20035;-41
2023/03/17 09:43:29;;;;;;;16.75;10.85;;;;;;;13.02;59.52;100609.78;5050340;28;20495;-42
2023/03/17 09:45:55;;;;;;;17.90;11.13;;;;;;;13.22;60.08;100608.28;5049730;28;20040;-41
2023/03/17 09:48:59;;;;;;;19.77;11.98;;;;;;;13.35;59.39;100595.34;5049421;28;20056;-43
2023/03/17 09:51:25;;;;;;;22.55;12.15;;;;;;;13.52;60.05;100598.09;5048806;28;20044;-40
2023/03/17 09:54:00;;;;;;;20.20;12.43;;;;;;;13.54;59.13;100604.13;5049535;28;20100;-42
2023/03/17 09:56:29;;;;;;;18.08;12.57;;;;;;;13.46;58.84;100591.09;5049971;28;20094;-42
2023/03/17 09:59:07;;;;;;;19.50;11.90;;;;;;;13.53;59.10;100596.94;5047277;28;20395;-42
2023/03/17 10:01:33;;;;;;;20.83;12.18;;;;;;;13.52;59.35;100595.31;5049385;28;20476;-41
2023/03/17 10:03:58;;;;;;;20.15;12.40;;;;;;;13.54;58.81;100600.56;5041298;28;20039;-41
2023/03/17 10:06:46;;;;;;;19.42;12.38;;;;;;;13.55;58.66;100597.44;5049991;28;20054;-41
2023/03/17 10:09:25;;;;;;;18.90;11.73;;;;;;;13.60;58.71;100609.53;5048467;28;20028;-40
2023/03/17 10:12:02;;;;;;;17.42;11.57;;;;;;;13.69;58.92;100608.34;5049839;28;20407;-42
2023/03/17 10:15:10;;;;;;;19.95;11.20;;;;;;;13.86;59.39;100612.19;5049702;28;20104;-43
2023/03/17 10:17:39;;;;;;;20.05;10.60;;;;;;;14.04;58.58;100621.25;5037592;28;20049;-42
2023/03/17 10:20:14;;;;;;;18.92;12.05;;;;;;;14.00;58.50;100614.72;5031000;28;20082;-41
2023/03/17 10:23:03;;;;;;;18.80;11.93;;;;;;;13.93;58.53;100612.50;5045579;28;20049;-41
2023/03/17 10:25:35;;;;;;;18.17;11.68;;;;;;;13.83;57.72;100624.78;5029967;28;20125;-41
2023/03/17 10:28:06;;;;;;;17.60;11.85;;;;;;;13.79;57.86;100640.50;5044443;28;20036;-41
2023/03/17 10:30:33;;;;;;;18.50;12.18;;;;;;;13.72;58.29;100654.94;5048090;28;20310;-42
2023/03/17 10:33:00;;;;;;;20.48;12.60;;;;;;;13.67;57.69;100643.97;5048249;28;20135;-42
2023/03/17 10:35:26;;;;;;;20.40;12.82;;;;;;;13.64;57.86;100641.06;5047736;28;20029;-42
2023/03/17 10:37:51;;;;;;;20.02;13.13;;;;;;;13.65;59.03;100632.38;5047765;28;20115;-42
2023/03/17 10:40:29;;;;;;;21.70;13.50;;;;;;;13.64;57.96;100647.44;5047681;28;20110;-41
2023/03/17 10:43:02;;;;;;;23.45;13.85;;;;;;;13.68;57.83;100642.03;5048623;28;20029;-42
2023/03/17 10:45:33;;;;;;;23.88;15.27;;;;;;;13.69;58.56;100638.91;5049525;28;20395;-42
2023/03/17 10:48:01;;;;;;;21.80;13.93;;;;;;;13.73;58.05;100639.06;5049587;28;20029;-43
2023/03/17 10:50:32;;;;;;;23.30;13.35;;;;;;;13.73;57.36;100627.94;5048170;28;20361;-42
2023/03/17 10:53:02;;;;;;;20.52;12.52;;;;;;;13.82;57.00;100634.28;5049374;28;20598;-42
2023/03/17 10:55:36;;;;;;;19.52;11.85;;;;;;;13.89;57.13;100636.53;5049531;28;20048;-41
2023/03/17 10:58:12;;;;;;;19.65;12.15;;;;;;;13.89;56.57;100625.41;5049124;28;20040;-42
2023/03/17 11:00:38;;;;;;;19.83;12.52;;;;;;;13.96;56.84;100633.25;5049407;28;20108;-42
2023/03/17 11:03:13;;;;;;;17.35;10.88;;;;;;;14.04;57.27;100640.72;5042005;28;20099;-41
2023/03/17 11:05:39;;;;;;;19.38;11.75;;;;;;;14.17;56.93;100624.94;5047826;28;20029;-42
2023/03/17 11:08:18;;;;;;;19.60;12.45;;;;;;;14.20;56.16;100619.53;5047886;28;20025;-41
2023/03/17 11:10:44;;;;;;;19.67;12.68;;;;;;;14.31;55.54;100617.16;5051087;28;20028;-41
2023/03/17 11:13:15;;;;;;;20.15;12.93;;;;;;;14.35;55.57;100618.13;5051433;28;20086;-41
2023/03/17 11:15:47;;;;;;;21.15;12.30;;;;;;;14.37;54.87;100611.41;5053276;28;20033;-41